sensor_id;sensor_type;location;lat;lon;timestamp;pressure;altitude;pressure_sealevel;temperature;humidity
56518;BME280;42419;48.760;2.322;2022-08-19T00:02:21;100853.59;;;24.50;45.77
56518;BME280;42419;48.760;2.322;2022-08-19T00:04:47;100860.56;;;24.54;45.09
56518;BME280;42419;48.760;2.322;2022-08-19T00:07:17;100833.63;;;24.39;45.23
56518;BME280;42419;48.760;2.322;2022-08-19T00:09:43;100857.16;;;24.51;45.44
56518;BME280;42419;48.760;2.322;2022-08-19T00:12:08;100866.19;;;24.50;45.53
56518;BME280;42419;48.760;2.322;2022-08-19T00:14:33;100864.38;;;24.50;45.51
56518;BME280;42419;48.760;2.322;2022-08-19T00:17:00;100864.53;;;24.47;45.55
56518;BME280;42419;48.760;2.322;2022-08-19T00:19:26;100854.28;;;24.38;45.62
56518;BME280;42419;48.760;2.322;2022-08-19T00:21:52;100871.03;;;24.43;45.34
56518;BME280;42419;48.760;2.322;2022-08-19T00:24:17;100857.16;;;24.35;45.58
56518;BME280;42419;48.760;2.322;2022-08-19T00:26:44;100875.56;;;24.43;45.41
56518;BME280;42419;48.760;2.322;2022-08-19T00:29:14;100868.53;;;24.40;45.10
56518;BME280;42419;48.760;2.322;2022-08-19T00:31:40;100854.00;;;24.27;45.37
56518;BME280;42419;48.760;2.322;2022-08-19T00:34:07;100863.41;;;24.36;45.60
56518;BME280;42419;48.760;2.322;2022-08-19T00:36:32;100855.66;;;24.30;45.35
56518;BME280;42419;48.760;2.322;2022-08-19T00:38:58;100854.00;;;24.27;45.44
56518;BME280;42419;48.760;2.322;2022-08-19T00:41:24;100855.91;;;24.25;45.74
56518;BME280;42419;48.760;2.322;2022-08-19T00:44:05;100866.34;;;24.31;45.60
56518;BME280;42419;48.760;2.322;2022-08-19T00:46:32;100876.31;;;24.29;45.77
56518;BME280;42419;48.760;2.322;2022-08-19T00:48:59;100869.53;;;24.22;45.23
56518;BME280;42419;48.760;2.322;2022-08-19T00:51:27;100876.38;;;24.28;45.54
56518;BME280;42419;48.760;2.322;2022-08-19T00:53:57;100872.38;;;24.19;45.52
56518;BME280;42419;48.760;2.322;2022-08-19T00:56:24;100877.44;;;24.25;45.54
56518;BME280;42419;48.760;2.322;2022-08-19T00:58:52;100822.69;;;23.93;45.31
56518;BME280;42419;48.760;2.322;2022-08-19T01:01:19;100864.47;;;24.16;45.69
56518;BME280;42419;48.760;2.322;2022-08-19T01:03:45;100873.19;;;24.21;45.73
56518;BME280;42419;48.760;2.322;2022-08-19T01:06:10;100855.03;;;24.09;45.74
56518;BME280;42419;48.760;2.322;2022-08-19T01:08:35;100875.94;;;24.20;45.44
56518;BME280;42419;48.760;2.322;2022-08-19T01:11:01;100873.44;;;24.16;45.65
56518;BME280;42419;48.760;2.322;2022-08-19T01:13:29;100855.16;;;24.06;45.88
56518;BME280;42419;48.760;2.322;2022-08-19T01:15:59;100857.59;;;24.10;45.62
56518;BME280;42419;48.760;2.322;2022-08-19T01:18:26;100869.25;;;24.11;46.02
56518;BME280;42419;48.760;2.322;2022-08-19T01:20:54;100879.06;;;24.12;45.34
56518;BME280;42419;48.760;2.322;2022-08-19T01:23:21;100874.72;;;24.09;45.88
56518;BME280;42419;48.760;2.322;2022-08-19T01:26:07;100874.97;;;24.05;45.43
56518;BME280;42419;48.760;2.322;2022-08-19T01:28:32;100865.47;;;23.98;45.49
56518;BME280;42419;48.760;2.322;2022-08-19T01:30:58;100868.09;;;23.99;45.74
56518;BME280;42419;48.760;2.322;2022-08-19T01:33:23;100857.66;;;23.93;45.45
56518;BME280;42419;48.760;2.322;2022-08-19T01:35:49;100874.34;;;24.00;45.79
56518;BME280;42419;48.760;2.322;2022-08-19T01:38:25;100875.38;;;23.97;45.47
56518;BME280;42419;48.760;2.322;2022-08-19T01:40:51;100853.56;;;23.86;45.46
56518;BME280;42419;48.760;2.322;2022-08-19T01:43:17;100873.72;;;23.95;45.46
56518;BME280;42419;48.760;2.322;2022-08-19T01:45:45;100877.34;;;23.94;45.65
56518;BME280;42419;48.760;2.322;2022-08-19T01:48:10;100868.53;;;23.92;45.62
56518;BME280;42419;48.760;2.322;2022-08-19T01:50:36;100871.28;;;23.90;45.99
56518;BME280;42419;48.760;2.322;2022-08-19T01:53:05;100881.97;;;23.92;45.96
56518;BME280;42419;48.760;2.322;2022-08-19T01:55:31;100885.75;;;23.88;45.88
56518;BME280;42419;48.760;2.322;2022-08-19T01:58:00;100880.47;;;23.86;46.20
56518;BME280;42419;48.760;2.322;2022-08-19T02:00:30;100876.06;;;23.84;46.05
56518;BME280;42419;48.760;2.322;2022-08-19T02:02:56;100849.75;;;23.73;45.85
56518;BME280;42419;48.760;2.322;2022-08-19T02:05:22;100873.34;;;23.85;46.24
56518;BME280;42419;48.760;2.322;2022-08-19T02:07:48;100870.84;;;23.81;46.04
56518;BME280;42419;48.760;2.322;2022-08-19T02:10:17;100880.56;;;23.83;46.43
56518;BME280;42419;48.760;2.322;2022-08-19T02:12:43;100876.41;;;23.78;46.39
56518;BME280;42419;48.760;2.322;2022-08-19T02:15:09;100884.31;;;23.81;46.45
56518;BME280;42419;48.760;2.322;2022-08-19T02:17:34;100860.75;;;23.68;46.26
56518;BME280;42419;48.760;2.322;2022-08-19T02:20:00;100870.22;;;23.76;46.39
56518;BME280;42419;48.760;2.322;2022-08-19T02:22:26;100858.22;;;23.65;46.75
56518;BME280;42419;48.760;2.322;2022-08-19T02:24:54;100884.53;;;23.76;46.35
56518;BME280;42419;48.760;2.322;2022-08-19T02:27:21;100888.19;;;23.75;46.66
56518;BME280;42419;48.760;2.322;2022-08-19T02:29:48;100887.31;;;23.74;46.67
56518;BME280;42419;48.760;2.322;2022-08-19T02:32:14;100887.66;;;23.68;46.18
56518;BME280;42419;48.760;2.322;2022-08-19T02:34:40;100899.03;;;23.73;46.27
56518;BME280;42419;48.760;2.322;2022-08-19T02:37:05;100896.47;;;23.70;46.50
56518;BME280;42419;48.760;2.322;2022-08-19T02:39:51;100890.22;;;23.70;46.46
56518;BME280;42419;48.760;2.322;2022-08-19T02:42:16;100885.72;;;23.70;46.89
56518;BME280;42419;48.760;2.322;2022-08-19T02:44:41;100848.53;;;23.46;46.50
56518;BME280;42419;48.760;2.322;2022-08-19T02:47:07;100885.97;;;23.66;46.41
56518;BME280;42419;48.760;2.322;2022-08-19T02:49:32;100888.75;;;23.64;46.42
56518;BME280;42419;48.760;2.322;2022-08-19T02:51:57;100883.53;;;23.61;46.63
56518;BME280;42419;48.760;2.322;2022-08-19T02:54:23;100822.38;;;23.32;46.45
56518;BME280;42419;48.760;2.322;2022-08-19T02:56:48;100883.28;;;23.66;46.38
56518;BME280;42419;48.760;2.322;2022-08-19T02:59:13;100863.59;;;23.48;46.41
56518;BME280;42419;48.760;2.322;2022-08-19T03:01:40;100893.09;;;23.67;46.57
56518;BME280;42419;48.760;2.322;2022-08-19T03:04:07;100876.03;;;23.51;46.81
56518;BME280;42419;48.760;2.322;2022-08-19T03:06:36;100898.53;;;23.65;46.82
56518;BME280;42419;48.760;2.322;2022-08-19T03:09:02;100898.53;;;23.65;46.70
56518;BME280;42419;48.760;2.322;2022-08-19T03:11:30;100887.78;;;23.65;47.06
56518;BME280;42419;48.760;2.322;2022-08-19T03:13:56;100891.34;;;23.66;46.71
56518;BME280;42419;48.760;2.322;2022-08-19T03:16:24;100892.31;;;23.65;47.13
56518;BME280;42419;48.760;2.322;2022-08-19T03:18:50;100886.06;;;23.64;47.01
56518;BME280;42419;48.760;2.322;2022-08-19T03:21:21;100885.19;;;23.64;46.81
56518;BME280;42419;48.760;2.322;2022-08-19T03:23:49;100891.44;;;23.64;46.84
56518;BME280;42419;48.760;2.322;2022-08-19T03:26:14;100840.00;;;23.38;46.93
56518;BME280;42419;48.760;2.322;2022-08-19T03:28:41;100880.94;;;23.60;46.96
56518;BME280;42419;48.760;2.322;2022-08-19T03:31:09;100882.56;;;23.62;47.05
56518;BME280;42419;48.760;2.322;2022-08-19T03:33:35;100859.03;;;23.50;47.21
56518;BME280;42419;48.760;2.322;2022-08-19T03:36:11;100883.53;;;23.61;47.18
56518;BME280;42419;48.760;2.322;2022-08-19T03:38:40;100880.84;;;23.61;46.99
56518;BME280;42419;48.760;2.322;2022-08-19T03:41:08;100868.59;;;23.56;47.15
56518;BME280;42419;48.760;2.322;2022-08-19T03:43:36;100877.38;;;23.59;47.04
56518;BME280;42419;48.760;2.322;2022-08-19T03:46:05;100884.50;;;23.60;47.15
56518;BME280;42419;48.760;2.322;2022-08-19T03:48:32;100864.66;;;23.46;47.14
56518;BME280;42419;48.760;2.322;2022-08-19T03:50:58;100885.56;;;23.56;47.26
56518;BME280;42419;48.760;2.322;2022-08-19T03:53:26;100887.19;;;23.60;47.08
56518;BME280;42419;48.760;2.322;2022-08-19T03:55:51;100866.41;;;23.47;47.31
56518;BME280;42419;48.760;2.322;2022-08-19T03:58:18;100888.03;;;23.61;47.33
56518;BME280;42419;48.760;2.322;2022-08-19T04:00:43;100887.19;;;23.60;47.23
56518;BME280;42419;48.760;2.322;2022-08-19T04:03:09;100893.50;;;23.59;47.39
56518;BME280;42419;48.760;2.322;2022-08-19T04:05:34;100890.81;;;23.59;47.22
56518;BME280;42419;48.760;2.322;2022-08-19T04:07:59;100877.59;;;23.55;47.24
56518;BME280;42419;48.760;2.322;2022-08-19T04:10:25;100880.06;;;23.59;47.65
56518;BME280;42419;48.760;2.322;2022-08-19T04:12:51;100880.94;;;23.60;47.20
56518;BME280;42419;48.760;2.322;2022-08-19T04:15:16;100870.50;;;23.54;47.38
56518;BME280;42419;48.760;2.322;2022-08-19T04:17:42;100881.81;;;23.60;47.18
56518;BME280;42419;48.760;2.322;2022-08-19T04:20:07;100879.19;;;23.59;47.60
56518;BME280;42419;48.760;2.322;2022-08-19T04:22:33;100876.50;;;23.59;47.20
56518;BME280;42419;48.760;2.322;2022-08-19T04:24:58;100867.00;;;23.52;47.23
56518;BME280;42419;48.760;2.322;2022-08-19T04:27:23;100886.38;;;23.58;47.28
56518;BME280;42419;48.760;2.322;2022-08-19T04:29:49;100886.38;;;23.58;47.29
56518;BME280;42419;48.760;2.322;2022-08-19T04:32:14;100880.28;;;23.55;47.53
56518;BME280;42419;48.760;2.322;2022-08-19T04:34:40;100881.00;;;23.58;47.12
56518;BME280;42419;48.760;2.322;2022-08-19T04:37:08;100888.19;;;23.58;47.14
56518;BME280;42419;48.760;2.322;2022-08-19T04:39:37;100896.25;;;23.58;47.46
56518;BME280;42419;48.760;2.322;2022-08-19T04:42:21;100887.31;;;23.57;47.32
56518;BME280;42419;48.760;2.322;2022-08-19T04:45:12;100882.53;;;23.47;46.99
56518;BME280;42419;48.760;2.322;2022-08-19T04:47:40;100878.16;;;23.44;47.31
56518;BME280;42419;48.760;2.322;2022-08-19T04:50:06;100898.06;;;23.57;47.37
56518;BME280;42419;48.760;2.322;2022-08-19T04:52:32;100893.75;;;23.55;47.36
56518;BME280;42419;48.760;2.322;2022-08-19T04:54:58;100900.00;;;23.55;47.24
56518;BME280;42419;48.760;2.322;2022-08-19T04:57:24;100894.03;;;23.49;47.27
56518;BME280;42419;48.760;2.322;2022-08-19T04:59:54;100911.50;;;23.57;47.04
56518;BME280;42419;48.760;2.322;2022-08-19T05:02:19;100912.56;;;23.55;47.50
56518;BME280;42419;48.760;2.322;2022-08-19T05:04:45;100909.88;;;23.55;47.22
56518;BME280;42419;48.760;2.322;2022-08-19T05:07:11;100918.63;;;23.58;47.54
56518;BME280;42419;48.760;2.322;2022-08-19T05:09:36;100914.19;;;23.57;47.19
56518;BME280;42419;48.760;2.322;2022-08-19T05:12:02;100905.84;;;23.46;47.31
56518;BME280;42419;48.760;2.322;2022-08-19T05:14:27;100918.63;;;23.58;47.56
56518;BME280;42419;48.760;2.322;2022-08-19T05:16:54;100914.44;;;23.53;47.31
56518;BME280;42419;48.760;2.322;2022-08-19T05:19:19;100909.94;;;23.53;47.31
56518;BME280;42419;48.760;2.322;2022-08-19T05:22:03;100923.94;;;23.60;47.15
56518;BME280;42419;48.760;2.322;2022-08-19T05:24:47;100925.75;;;23.59;47.22
56518;BME280;42419;48.760;2.322;2022-08-19T05:27:13;100918.94;;;23.52;47.77
56518;BME280;42419;48.760;2.322;2022-08-19T05:29:38;100919.91;;;23.51;47.76
56518;BME280;42419;48.760;2.322;2022-08-19T05:32:05;100914.53;;;23.51;47.46
56518;BME280;42419;48.760;2.322;2022-08-19T05:34:33;100931.91;;;23.61;47.40
56518;BME280;42419;48.760;2.322;2022-08-19T05:37:02;100936.28;;;23.64;47.58
56518;BME280;42419;48.760;2.322;2022-08-19T05:39:30;100939.72;;;23.66;47.56
56518;BME280;42419;48.760;2.322;2022-08-19T05:41:59;100931.03;;;23.61;47.87
56518;BME280;42419;48.760;2.322;2022-08-19T05:44:26;100932.47;;;23.68;47.84
56518;BME280;42419;48.760;2.322;2022-08-19T05:46:52;100936.91;;;23.69;47.43
56518;BME280;42419;48.760;2.322;2022-08-19T05:49:20;100904.56;;;23.53;47.63
56518;BME280;42419;48.760;2.322;2022-08-19T05:51:46;100933.41;;;23.67;47.39
56518;BME280;42419;48.760;2.322;2022-08-19T05:54:11;100926.94;;;23.71;47.60
56518;BME280;42419;48.760;2.322;2022-08-19T05:56:39;100924.25;;;23.71;47.52
56518;BME280;42419;48.760;2.322;2022-08-19T05:59:06;100932.38;;;23.69;47.56
56518;BME280;42419;48.760;2.322;2022-08-19T06:01:41;100919.28;;;23.63;47.76
56518;BME280;42419;48.760;2.322;2022-08-19T06:04:08;100939.38;;;23.73;48.03
56518;BME280;42419;48.760;2.322;2022-08-19T06:06:35;100943.69;;;23.76;47.60
56518;BME280;42419;48.760;2.322;2022-08-19T06:09:02;100952.56;;;23.78;48.04
56518;BME280;42419;48.760;2.322;2022-08-19T06:11:46;100944.50;;;23.78;48.26
56518;BME280;42419;48.760;2.322;2022-08-19T06:14:18;100943.88;;;23.73;48.09
56518;BME280;42419;48.760;2.322;2022-08-19T06:16:45;100929.09;;;23.64;48.35
56518;BME280;42419;48.760;2.322;2022-08-19T06:19:16;100952.56;;;23.78;47.88
56518;BME280;42419;48.760;2.322;2022-08-19T06:21:44;100962.44;;;23.78;48.39
56518;BME280;42419;48.760;2.322;2022-08-19T06:24:13;100966.97;;;23.77;47.91
56518;BME280;42419;48.760;2.322;2022-08-19T06:26:41;100963.41;;;23.77;48.35
56518;BME280;42419;48.760;2.322;2022-08-19T06:29:10;100960.72;;;23.77;48.19
56518;BME280;42419;48.760;2.322;2022-08-19T06:31:36;100967.91;;;23.76;48.38
56518;BME280;42419;48.760;2.322;2022-08-19T06:34:03;100967.19;;;23.72;48.31
56518;BME280;42419;48.760;2.322;2022-08-19T06:36:34;100967.97;;;23.74;47.90
56518;BME280;42419;48.760;2.322;2022-08-19T06:39:08;100970.66;;;23.74;48.45
56518;BME280;42419;48.760;2.322;2022-08-19T06:41:36;100977.78;;;23.76;48.45
56518;BME280;42419;48.760;2.322;2022-08-19T06:44:03;100975.09;;;23.76;48.71
56518;BME280;42419;48.760;2.322;2022-08-19T06:46:29;100969.94;;;23.71;48.39
56518;BME280;42419;48.760;2.322;2022-08-19T06:48:56;100972.34;;;23.77;48.17
56518;BME280;42419;48.760;2.322;2022-08-19T06:51:22;100973.22;;;23.78;48.22
56518;BME280;42419;48.760;2.322;2022-08-19T06:53:51;100974.91;;;23.79;48.71
56518;BME280;42419;48.760;2.322;2022-08-19T06:56:19;100979.47;;;23.78;48.77
56518;BME280;42419;48.760;2.322;2022-08-19T06:58:44;100977.59;;;23.79;48.39
56518;BME280;42419;48.760;2.322;2022-08-19T07:01:12;100985.69;;;23.79;48.73
56518;BME280;42419;48.760;2.322;2022-08-19T07:03:38;100987.44;;;23.80;48.49
56518;BME280;42419;48.760;2.322;2022-08-19T07:06:10;100985.53;;;23.82;48.68
56518;BME280;42419;48.760;2.322;2022-08-19T07:08:37;100976.66;;;23.80;48.74
56518;BME280;42419;48.760;2.322;2022-08-19T07:11:06;100987.19;;;23.84;48.76
56518;BME280;42419;48.760;2.322;2022-08-19T07:13:33;100974.59;;;23.86;48.95
56518;BME280;42419;48.760;2.322;2022-08-19T07:16:04;100985.25;;;23.88;48.62
56518;BME280;42419;48.760;2.322;2022-08-19T07:18:30;100986.22;;;23.87;48.76
56518;BME280;42419;48.760;2.322;2022-08-19T07:21:10;100980.16;;;23.82;48.96
56518;BME280;42419;48.760;2.322;2022-08-19T07:23:36;100995.88;;;23.91;48.67
56518;BME280;42419;48.760;2.322;2022-08-19T07:26:11;100982.69;;;23.85;49.04
56518;BME280;42419;48.760;2.322;2022-08-19T07:28:37;100998.44;;;23.92;48.98
56518;BME280;42419;48.760;2.322;2022-08-19T07:31:06;100964.16;;;23.79;49.02
56518;BME280;42419;48.760;2.322;2022-08-19T07:33:32;100989.44;;;23.93;48.99
56518;BME280;42419;48.760;2.322;2022-08-19T07:35:59;100984.41;;;23.87;49.15
56518;BME280;42419;48.760;2.322;2022-08-19T07:38:24;100995.63;;;23.95;49.08
56518;BME280;42419;48.760;2.322;2022-08-19T07:40:50;100965.91;;;23.80;48.71
56518;BME280;42419;48.760;2.322;2022-08-19T07:43:16;100995.53;;;23.97;49.05
56518;BME280;42419;48.760;2.322;2022-08-19T07:45:53;100991.25;;;23.93;48.78
56518;BME280;42419;48.760;2.322;2022-08-19T07:48:25;100992.94;;;23.95;48.73
56518;BME280;42419;48.760;2.322;2022-08-19T07:50:56;100992.06;;;23.95;48.68
56518;BME280;42419;48.760;2.322;2022-08-19T07:53:23;100990.31;;;23.94;49.22
56518;BME280;42419;48.760;2.322;2022-08-19T07:55:50;100992.06;;;23.95;48.63
56518;BME280;42419;48.760;2.322;2022-08-19T07:58:20;100983.19;;;23.93;48.76
56518;BME280;42419;48.760;2.322;2022-08-19T08:00:47;100984.00;;;23.95;48.95
56518;BME280;42419;48.760;2.322;2022-08-19T08:03:15;100971.03;;;23.86;48.92
56518;BME280;42419;48.760;2.322;2022-08-19T08:05:41;100988.56;;;23.93;49.08
56518;BME280;42419;48.760;2.322;2022-08-19T08:08:26;100978.91;;;23.89;48.68
56518;BME280;42419;48.760;2.322;2022-08-19T08:11:11;100981.47;;;23.92;49.06
56518;BME280;42419;48.760;2.322;2022-08-19T08:13:37;100985.88;;;23.93;49.29
56518;BME280;42419;48.760;2.322;2022-08-19T08:16:03;100990.75;;;23.85;49.13
56518;BME280;42419;48.760;2.322;2022-08-19T08:18:28;100982.69;;;23.85;49.68
56518;BME280;42419;48.760;2.322;2022-08-19T08:20:55;100985.25;;;23.88;49.30
56518;BME280;42419;48.760;2.322;2022-08-19T08:23:21;100998.81;;;23.85;49.16
56518;BME280;42419;48.760;2.322;2022-08-19T08:25:56;101012.00;;;23.91;49.05
56518;BME280;42419;48.760;2.322;2022-08-19T08:28:23;100986.41;;;23.82;49.00
56518;BME280;42419;48.760;2.322;2022-08-19T08:30:49;100998.88;;;23.83;48.78
56518;BME280;42419;48.760;2.322;2022-08-19T08:33:21;101016.50;;;23.90;49.02
56518;BME280;42419;48.760;2.322;2022-08-19T08:35:47;101008.44;;;23.90;49.07
56518;BME280;42419;48.760;2.322;2022-08-19T08:38:13;101009.38;;;23.89;48.74
56518;BME280;42419;48.760;2.322;2022-08-19T08:40:46;101011.19;;;23.89;49.03
56518;BME280;42419;48.760;2.322;2022-08-19T08:43:27;101014.75;;;23.89;48.83
56518;BME280;42419;48.760;2.322;2022-08-19T08:46:01;101013.81;;;23.90;49.30
56518;BME280;42419;48.760;2.322;2022-08-19T08:51:38;101013.88;;;23.89;48.73
56518;BME280;42419;48.760;2.322;2022-08-19T08:54:06;101005.13;;;23.84;48.72
56518;BME280;42419;48.760;2.322;2022-08-19T08:56:32;100994.63;;;23.79;49.08
56518;BME280;42419;48.760;2.322;2022-08-19T08:58:58;101020.84;;;23.93;49.06
56518;BME280;42419;48.760;2.322;2022-08-19T09:01:25;101010.00;;;23.94;49.14
56518;BME280;42419;48.760;2.322;2022-08-19T09:03:51;101004.81;;;23.91;49.03
56518;BME280;42419;48.760;2.322;2022-08-19T09:06:40;100982.84;;;23.82;49.07
56518;BME280;42419;48.760;2.322;2022-08-19T09:09:30;101007.50;;;23.91;48.85
56518;BME280;42419;48.760;2.322;2022-08-19T09:12:19;101014.44;;;23.95;48.81
56518;BME280;42419;48.760;2.322;2022-08-19T09:14:58;101011.84;;;23.94;48.99
56518;BME280;42419;48.760;2.322;2022-08-19T09:17:27;101010.00;;;23.94;48.61
56518;BME280;42419;48.760;2.322;2022-08-19T09:20:24;101003.75;;;23.94;48.86
56518;BME280;42419;48.760;2.322;2022-08-19T09:22:50;100995.06;;;23.89;48.79
56518;BME280;42419;48.760;2.322;2022-08-19T09:25:19;101008.25;;;23.93;49.03
56518;BME280;42419;48.760;2.322;2022-08-19T09:27:46;101011.75;;;23.95;48.54
56518;BME280;42419;48.760;2.322;2022-08-19T09:30:18;101009.06;;;23.95;48.88
56518;BME280;42419;48.760;2.322;2022-08-19T09:32:44;101009.84;;;23.97;48.76
56518;BME280;42419;48.760;2.322;2022-08-19T09:35:11;101008.84;;;24.00;48.95
56518;BME280;42419;48.760;2.322;2022-08-19T09:37:37;101000.59;;;24.03;48.83
56518;BME280;42419;48.760;2.322;2022-08-19T09:40:04;100990.00;;;24.00;48.36
56518;BME280;42419;48.760;2.322;2022-08-19T09:42:29;100994.75;;;24.12;48.67
56518;BME280;42419;48.760;2.322;2022-08-19T09:44:55;100991.09;;;24.13;48.31
56518;BME280;42419;48.760;2.322;2022-08-19T09:47:20;100991.56;;;24.21;48.83
56518;BME280;42419;48.760;2.322;2022-08-19T09:49:46;100988.06;;;24.19;48.36
56518;BME280;42419;48.760;2.322;2022-08-19T09:52:13;100977.31;;;24.19;48.32
56518;BME280;42419;48.760;2.322;2022-08-19T09:54:40;100968.22;;;24.22;48.63
56518;BME280;42419;48.760;2.322;2022-08-19T09:57:06;100955.31;;;24.11;48.27
56518;BME280;42419;48.760;2.322;2022-08-19T09:59:31;100980.31;;;24.30;48.27
56518;BME280;42419;48.760;2.322;2022-08-19T10:01:56;100947.00;;;24.15;48.74
56518;BME280;42419;48.760;2.322;2022-08-19T10:04:22;101002.84;;;24.45;48.58
56518;BME280;42419;48.760;2.322;2022-08-19T10:06:49;100990.41;;;24.42;48.29
56518;BME280;42419;48.760;2.322;2022-08-19T10:09:17;100995.41;;;24.50;48.57
56518;BME280;42419;48.760;2.322;2022-08-19T10:11:44;100999.78;;;24.52;48.32
56518;BME280;42419;48.760;2.322;2022-08-19T10:14:15;100991.63;;;24.54;47.87
56518;BME280;42419;48.760;2.322;2022-08-19T10:16:41;100978.31;;;24.51;48.13
56518;BME280;42419;48.760;2.322;2022-08-19T10:19:08;100989.63;;;24.57;47.68
56518;BME280;42419;48.760;2.322;2022-08-19T10:21:35;100971.97;;;24.52;47.67
56518;BME280;42419;48.760;2.322;2022-08-19T10:24:02;100960.63;;;24.45;47.38
56518;BME280;42419;48.760;2.322;2022-08-19T10:26:39;100997.34;;;24.64;47.73
56518;BME280;42419;48.760;2.322;2022-08-19T10:29:07;100987.38;;;24.66;47.53
56518;BME280;42419;48.760;2.322;2022-08-19T10:31:34;100973.38;;;24.59;46.96
56518;BME280;42419;48.760;2.322;2022-08-19T10:34:00;100989.81;;;24.70;47.05
56518;BME280;42419;48.760;2.322;2022-08-19T10:36:34;100993.38;;;24.71;47.40
56518;BME280;42419;48.760;2.322;2022-08-19T10:39:06;100995.13;;;24.72;46.91
56518;BME280;42419;48.760;2.322;2022-08-19T10:41:34;100991.47;;;24.73;47.03
56518;BME280;42419;48.760;2.322;2022-08-19T10:44:04;100990.53;;;24.74;46.92
56518;BME280;42419;48.760;2.322;2022-08-19T10:46:30;100980.81;;;24.71;47.21
56518;BME280;42419;48.760;2.322;2022-08-19T10:48:59;100973.75;;;24.69;47.74
56518;BME280;42419;48.760;2.322;2022-08-19T10:51:24;100985.75;;;24.79;47.13
56518;BME280;42419;48.760;2.322;2022-08-19T10:54:09;100985.56;;;24.82;47.69
56518;BME280;42419;48.760;2.322;2022-08-19T10:56:35;100989.94;;;24.84;47.66
56518;BME280;42419;48.760;2.322;2022-08-19T11:01:45;100983.50;;;24.87;48.15
56518;BME280;42419;48.760;2.322;2022-08-19T11:04:11;100986.72;;;24.93;48.14
56518;BME280;42419;48.760;2.322;2022-08-19T11:06:39;100979.34;;;24.97;47.95
56518;BME280;42419;48.760;2.322;2022-08-19T11:09:07;100972.91;;;24.99;48.09
56518;BME280;42419;48.760;2.322;2022-08-19T11:11:34;100976.13;;;25.06;47.50
56518;BME280;42419;48.760;2.322;2022-08-19T11:14:04;100969.63;;;25.10;47.51
56518;BME280;42419;48.760;2.322;2022-08-19T11:16:30;100972.25;;;25.12;47.76
56518;BME280;42419;48.760;2.322;2022-08-19T11:18:58;100957.44;;;25.03;48.16
56518;BME280;42419;48.760;2.322;2022-08-19T11:23:52;100964.69;;;25.18;48.26
56518;BME280;42419;48.760;2.322;2022-08-19T11:26:20;100942.34;;;25.16;47.75
56518;BME280;42419;48.760;2.322;2022-08-19T11:28:46;100926.69;;;25.07;47.71
56518;BME280;42419;48.760;2.322;2022-08-19T11:31:14;100883.84;;;24.87;47.73
56518;BME280;42419;48.760;2.322;2022-08-19T11:33:40;100954.16;;;25.29;47.83
56518;BME280;42419;48.760;2.322;2022-08-19T11:36:06;100954.16;;;25.29;49.00
56518;BME280;42419;48.760;2.322;2022-08-19T11:38:32;100935.72;;;25.22;48.48
56518;BME280;42419;48.760;2.322;2022-08-19T11:41:02;100892.53;;;24.92;47.86
56518;BME280;42419;48.760;2.322;2022-08-19T11:43:29;100954.31;;;25.26;47.62
56518;BME280;42419;48.760;2.322;2022-08-19T11:45:55;100957.00;;;25.26;47.14
56518;BME280;42419;48.760;2.322;2022-08-19T11:48:21;100964.22;;;25.26;47.32
56518;BME280;42419;48.760;2.322;2022-08-19T11:50:52;100956.31;;;25.23;47.55
56518;BME280;42419;48.760;2.322;2022-08-19T11:53:20;100959.97;;;25.22;47.60
56518;BME280;42419;48.760;2.322;2022-08-19T11:55:46;100947.56;;;25.19;47.50
56518;BME280;42419;48.760;2.322;2022-08-19T11:58:13;100941.75;;;25.11;47.29
56518;BME280;42419;48.760;2.322;2022-08-19T12:00:39;100931.28;;;25.05;47.26
56518;BME280;42419;48.760;2.322;2022-08-19T12:03:05;100925.13;;;25.03;47.23
56518;BME280;42419;48.760;2.322;2022-08-19T12:05:30;100936.66;;;25.05;47.57
56518;BME280;42419;48.760;2.322;2022-08-19T12:07:56;100919.72;;;24.87;47.57
56518;BME280;42419;48.760;2.322;2022-08-19T12:10:22;100943.25;;;24.99;47.67
56518;BME280;42419;48.760;2.322;2022-08-19T12:12:48;100951.34;;;24.99;47.63
56518;BME280;42419;48.760;2.322;2022-08-19T12:15:13;100941.69;;;24.95;47.71
56518;BME280;42419;48.760;2.322;2022-08-19T12:17:42;100947.09;;;24.95;47.37
56518;BME280;42419;48.760;2.322;2022-08-19T12:20:12;100935.81;;;24.89;48.12
56518;BME280;42419;48.760;2.322;2022-08-19T12:22:39;100948.75;;;24.98;48.06
56518;BME280;42419;48.760;2.322;2022-08-19T12:25:10;100938.84;;;24.98;47.97
56518;BME280;42419;48.760;2.322;2022-08-19T12:27:37;100951.81;;;25.08;48.26
56518;BME280;42419;48.760;2.322;2022-08-19T12:30:05;100947.19;;;25.10;48.63
56518;BME280;42419;48.760;2.322;2022-08-19T12:32:31;100930.13;;;25.09;48.53
56518;BME280;42419;48.760;2.322;2022-08-19T12:34:56;100946.16;;;25.28;48.21
56518;BME280;42419;48.760;2.322;2022-08-19T12:37:22;100941.63;;;25.28;48.31
56518;BME280;42419;48.760;2.322;2022-08-19T12:39:47;100926.41;;;25.27;48.64
56518;BME280;42419;48.760;2.322;2022-08-19T12:42:14;100934.16;;;25.33;48.79
56518;BME280;42419;48.760;2.322;2022-08-19T12:44:41;100944.41;;;25.42;48.80
56518;BME280;42419;48.760;2.322;2022-08-19T12:47:07;100945.06;;;25.46;48.33
56518;BME280;42419;48.760;2.322;2022-08-19T12:49:34;100937.88;;;25.46;48.17
56518;BME280;42419;48.760;2.322;2022-08-19T12:52:03;100939.50;;;25.49;48.38
56518;BME280;42419;48.760;2.322;2022-08-19T12:54:29;100940.38;;;25.49;48.79
56518;BME280;42419;48.760;2.322;2022-08-19T12:56:56;100929.97;;;25.43;48.36
56518;BME280;42419;48.760;2.322;2022-08-19T12:59:21;100937.66;;;25.49;48.16
56518;BME280;42419;48.760;2.322;2022-08-19T13:01:47;100926.28;;;25.44;48.24
56518;BME280;42419;48.760;2.322;2022-08-19T13:04:12;100930.09;;;25.56;48.53